Time;durP1;ratioP1;P1;durP2;ratioP2;P2;SDS_P1;SDS_P2;PMS_P1;PMS_P2;Temp;Humidity;BMP_temperature;BMP_pressure;BME280_temperature;BME280_humidity;BME280_pressure;Samples;Min_cycle;Max_cycle;Signal;HPM_P1;HPM_P2
2022/03/18 00:03:26;;;;;;;7.63;2.10;;;;;;;6.02;69.27;101166.13;8291116;28;20054;-71
2022/03/18 00:07:27;;;;;;;6.00;1.80;;;;;;;6.03;69.56;101162.75;8294208;28;20143;-71
2022/03/18 00:11:29;;;;;;;4.50;2.00;;;;;;;6.01;69.96;101173.81;8295176;28;20398;-71
2022/03/18 00:15:32;;;;;;;6.73;2.00;;;;;;;5.98;69.92;101173.69;8291686;28;20093;-71
2022/03/18 00:19:34;;;;;;;4.90;1.73;;;;;;;5.97;69.95;101177.97;8294031;28;20053;-71
2022/03/18 00:23:36;;;;;;;4.03;1.60;;;;;;;5.95;69.88;101170.97;8292860;28;20137;-71
2022/03/18 00:27:39;;;;;;;4.23;1.57;;;;;;;5.94;69.95;101175.25;8291742;28;20120;-71
2022/03/18 00:31:40;;;;;;;;;;;;;;;5.93;69.62;101167.47;8287681;28;20073;-71
2022/03/18 00:35:42;;;;;;;5.80;1.60;;;;;;;5.93;70.27;101159.72;8642575;22;20637;-71
2022/03/18 00:39:43;;;;;;;3.60;1.53;;;;;;;5.94;69.87;101177.84;8281739;28;20100;-72
2022/03/18 00:43:46;;;;;;;6.07;1.53;;;;;;;5.94;69.82;101172.69;8288600;28;20046;-73
2022/03/18 00:52:07;;;;;;;3.40;1.60;;;;;;;5.93;70.80;101180.34;8292588;28;20477;-72
2022/03/18 00:56:09;;;;;;;3.73;1.80;;;;;;;5.91;70.24;101180.25;8295765;28;20064;-72
2022/03/18 01:00:11;;;;;;;5.17;1.57;;;;;;;5.91;70.58;101177.69;8294564;28;20058;-72
2022/03/18 01:04:12;;;;;;;4.00;2.00;;;;;;;5.90;70.70;101185.34;8280626;28;20819;-71
2022/03/18 01:08:14;;;;;;;3.43;1.50;;;;;;;5.87;70.93;101183.50;8289133;28;20405;-72
2022/03/18 01:12:16;;;;;;;6.17;2.47;;;;;;;5.84;71.07;101179.91;8291195;28;20747;-72
2022/03/18 01:16:18;;;;;;;6.53;1.60;;;;;;;5.78;71.45;101183.09;8278869;28;20466;-72
2022/03/18 01:20:19;;;;;;;1.80;1.20;;;;;;;5.76;71.79;101177.88;8259011;28;20054;-73
2022/03/18 01:24:21;;;;;;;4.83;1.47;;;;;;;5.70;72.12;101182.75;8265606;28;20082;-71
2022/03/18 01:28:23;;;;;;;4.77;1.67;;;;;;;5.69;72.60;101186.16;8266193;28;20447;-72
2022/03/18 01:32:24;;;;;;;5.72;1.50;;;;;;;5.64;72.13;101182.50;8277204;28;20055;-72
2022/03/18 01:36:26;;;;;;;7.40;1.53;;;;;;;5.65;71.84;101184.25;8300965;28;20438;-72
2022/03/18 01:40:27;;;;;;;2.85;1.20;;;;;;;5.67;71.97;101186.91;8297532;28;20054;-72
2022/03/18 01:44:29;;;;;;;3.90;1.70;;;;;;;5.68;71.42;101183.50;8287036;28;20041;-72
2022/03/18 01:48:34;;;;;;;3.27;1.30;;;;;;;5.62;72.02;101181.56;8296240;28;20513;-72
2022/03/18 01:52:36;;;;;;;2.13;1.55;;;;;;;5.65;71.83;101185.94;8302830;28;20156;-72
2022/03/18 01:56:38;;;;;;;3.63;1.05;;;;;;;5.64;72.13;101189.34;8301758;28;20049;-72
2022/03/18 02:00:39;;;;;;;2.57;1.10;;;;;;;5.66;71.88;101190.28;8293089;28;20610;-72
2022/03/18 02:04:42;;;;;;;7.03;1.60;;;;;;;5.65;71.46;101189.41;8301933;28;20049;-72
2022/03/18 02:08:47;;;;;;;6.38;1.20;;;;;;;5.62;71.86;101183.25;8302325;28;20136;-72
2022/03/18 02:12:48;;;;;;;3.40;1.10;;;;;;;5.58;71.97;101192.53;8295729;28;20046;-72
2022/03/18 02:16:53;;;;;;;3.13;1.33;;;;;;;5.58;72.27;101187.38;8298719;28;20123;-71
2022/03/18 02:20:55;;;;;;;4.93;1.60;;;;;;;5.63;71.70;101182.44;8298114;28;20427;-71
2022/03/18 02:24:56;;;;;;;4.13;1.20;;;;;;;5.65;71.71;101184.25;8297925;28;20057;-71
2022/03/18 02:28:58;;;;;;;3.67;1.17;;;;;;;5.64;71.45;101187.66;8303707;28;20129;-71
2022/03/18 02:33:01;;;;;;;3.83;1.43;;;;;;;5.63;71.55;101190.16;8293136;28;20166;-72
2022/03/18 02:37:02;;;;;;;3.17;1.10;;;;;;;5.62;71.71;101193.56;8296462;28;20141;-72
2022/03/18 02:41:04;;;;;;;2.63;1.10;;;;;;;5.62;71.62;101199.59;8302755;28;20099;-71
2022/03/18 02:45:06;;;;;;;6.17;1.17;;;;;;;5.64;71.56;101202.22;8296500;28;20132;-71
2022/03/18 02:49:08;;;;;;;5.38;1.33;;;;;;;5.62;71.93;101199.59;8301977;28;20057;-71
2022/03/18 02:53:10;;;;;;;3.07;1.00;;;;;;;5.62;72.11;101201.28;8293433;28;20054;-71
2022/03/18 02:57:12;;;;;;;7.10;1.30;;;;;;;5.58;71.88;101204.53;8306177;28;20430;-71
2022/03/18 03:01:14;;;;;;;5.05;1.60;;;;;;;5.55;71.72;101199.22;8296756;28;20080;-72
2022/03/18 03:09:36;;;;;;;2.20;1.10;;;;;;;5.53;72.06;101200.84;8309887;28;20136;-71
2022/03/18 03:13:37;;;;;;;6.27;1.60;;;;;;;5.51;72.36;101200.78;8306419;28;20075;-73
2022/03/18 03:17:39;;;;;;;2.80;1.23;;;;;;;5.47;72.25;101215.22;8305137;28;20057;-71
2022/03/18 03:21:41;;;;;;;4.27;1.90;;;;;;;5.47;72.42;101219.50;8304797;28;20101;-71
2022/03/18 03:25:43;;;;;;;4.30;1.30;;;;;;;5.41;72.51;101217.53;8302865;28;20129;-71
2022/03/18 03:29:44;;;;;;;6.57;1.50;;;;;;;5.40;72.62;101231.25;8307471;28;20045;-73
2022/03/18 03:33:46;;;;;;;4.93;0.93;;;;;;;5.39;72.05;101229.47;8297407;28;20057;-72
2022/03/18 03:37:47;;;;;;;4.60;1.40;;;;;;;5.36;72.45;101237.03;8306592;28;20054;-72
2022/03/18 03:41:49;;;;;;;2.47;1.00;;;;;;;5.39;72.45;101238.91;8305275;28;20092;-71
2022/03/18 03:45:50;;;;;;;5.13;1.10;;;;;;;5.40;72.06;101248.38;8301030;28;20158;-71
2022/03/18 03:49:51;;;;;;;3.77;0.90;;;;;;;5.40;72.62;101245.81;8308753;28;20525;-73
2022/03/18 03:53:53;;;;;;;3.67;1.13;;;;;;;5.36;72.17;101244.75;8304149;28;20049;-73
2022/03/18 03:57:54;;;;;;;2.23;0.80;;;;;;;5.40;72.24;101244.13;8305069;28;20053;-72
2022/03/18 04:01:57;;;;;;;2.63;1.10;;;;;;;5.38;72.36;101247.41;8299533;28;20136;-73
2022/03/18 04:05:59;;;;;;;6.87;1.17;;;;;;;5.38;71.96;101253.44;8291143;28;20058;-73
2022/03/18 04:10:03;;;;;;;6.10;1.20;;;;;;;5.38;72.03;101253.44;8299919;28;20067;-73
2022/03/18 04:14:04;;;;;;;5.40;2.00;;;;;;;5.36;72.23;101260.22;8298154;28;20843;-73
2022/03/18 04:18:06;;;;;;;4.77;1.40;;;;;;;5.36;72.24;101261.91;8283043;28;20092;-73
2022/03/18 04:22:07;;;;;;;4.20;1.03;;;;;;;5.35;72.47;101273.91;8295600;28;20058;-71
2022/03/18 04:26:08;;;;;;;6.77;1.23;;;;;;;5.34;72.47;101279.88;8298828;28;20057;-73
2022/03/18 04:30:12;;;;;;;4.37;1.20;;;;;;;5.36;72.52;101278.25;8283165;28;20132;-73
2022/03/18 04:34:13;;;;;;;2.07;0.80;;;;;;;5.35;72.50;101276.47;8285795;28;20053;-73
2022/03/18 04:38:15;;;;;;;2.93;1.00;;;;;;;5.30;72.72;101280.53;8296410;28;20196;-73
2022/03/18 04:42:17;;;;;;;3.23;1.23;;;;;;;5.28;73.17;101286.44;8295412;28;20053;-73
2022/03/18 04:46:19;;;;;;;6.03;1.27;;;;;;;5.31;72.93;101290.03;8296280;28;20079;-73
2022/03/18 04:50:21;;;;;;;4.15;1.17;;;;;;;5.29;73.20;101283.06;8293411;28;20046;-73
2022/03/18 04:54:22;;;;;;;7.20;1.47;;;;;;;5.28;73.37;101282.16;8298563;28;20169;-73
2022/03/18 04:58:24;;;;;;;3.07;1.20;;;;;;;5.28;73.50;101282.16;8297343;28;20623;-73
2022/03/18 05:02:26;;;;;;;8.43;1.40;;;;;;;5.29;73.06;101289.09;8303820;28;20065;-73
2022/03/18 05:06:29;;;;;;;4.13;1.40;;;;;;;5.25;73.28;101288.88;8303448;28;20061;-73
2022/03/18 05:10:31;;;;;;;4.35;1.10;;;;;;;5.26;73.48;101293.22;8295142;28;20165;-73
2022/03/18 05:14:34;;;;;;;5.40;1.23;;;;;;;5.25;73.28;101297.47;8295393;28;20049;-73
2022/03/18 05:18:35;;;;;;;3.53;1.20;;;;;;;5.24;73.39;101311.16;8304160;28;20156;-73
2022/03/18 05:22:37;;;;;;;2.70;1.00;;;;;;;5.24;73.53;101310.28;8297798;28;20053;-73
2022/03/18 05:26:38;;;;;;;1.83;0.97;;;;;;;5.19;73.85;101312.63;8289787;28;20053;-73
2022/03/18 05:30:40;;;;;;;6.87;1.37;;;;;;;5.16;74.04;101315.94;8296215;28;20156;-73
2022/03/18 05:34:42;;;;;;;3.33;1.02;;;;;;;5.15;74.09;101316.75;8296414;28;20053;-73
2022/03/18 05:38:43;;;;;;;4.20;1.13;;;;;;;5.14;74.09;101314.97;8301082;28;20312;-73
2022/03/18 05:42:46;;;;;;;4.03;1.30;;;;;;;5.13;73.94;101317.47;8300082;28;20137;-73
2022/03/18 05:46:48;;;;;;;4.90;1.27;;;;;;;5.11;74.26;101319.09;8302091;28;20152;-73
2022/03/18 05:50:51;;;;;;;5.75;1.35;;;;;;;5.09;74.26;101325.88;8296576;28;21046;-72
2022/03/18 05:54:52;;;;;;;;;;;;;;;5.09;74.16;101336.19;8296301;28;20111;-73
2022/03/18 05:58:54;;;;;;;5.63;1.70;;;;;;;5.09;74.52;101337.06;8300269;28;20012;-73
2022/03/18 06:02:57;;;;;;;3.08;1.20;;;;;;;5.12;74.35;101338.91;8275810;28;20489;-73
2022/03/18 06:06:58;;;;;;;7.10;1.13;;;;;;;5.14;74.10;101355.28;8292201;28;20057;-73
2022/03/18 06:15:20;;;;;;;4.97;1.90;;;;;;;5.19;74.22;101356.41;8281685;28;20140;-72
2022/03/18 06:19:24;;;;;;;5.63;1.10;;;;;;;5.24;74.12;101369.53;8244053;28;20073;-74
2022/03/18 06:23:26;;;;;;;5.00;1.57;;;;;;;5.27;73.71;101369.66;8247930;28;20498;-72
2022/03/18 06:27:28;;;;;;;5.28;1.35;;;;;;;5.30;73.75;101368.13;8244181;28;20058;-73
2022/03/18 06:31:29;;;;;;;5.23;1.40;;;;;;;5.35;73.40;101373.47;8247190;28;20062;-73
2022/03/18 06:35:30;;;;;;;6.67;1.53;;;;;;;5.39;73.39;101383.16;8244069;28;20061;-73
2022/03/18 06:39:33;;;;;;;3.57;1.20;;;;;;;5.44;73.42;101394.53;8241086;28;20050;-71
2022/03/18 06:43:34;;;;;;;5.10;1.92;;;;;;;5.49;73.08;101398.22;8271835;28;20050;-72
2022/03/18 06:47:35;;;;;;;5.60;1.93;;;;;;;5.55;72.58;101405.34;8245116;28;20803;-72
2022/03/18 06:51:37;;;;;;;7.67;1.60;;;;;;;5.63;72.46;101396.31;8252396;28;20058;-72
2022/03/18 06:55:38;;;;;;;3.03;1.50;;;;;;;5.70;72.86;101400.94;8248801;28;20658;-72
2022/03/18 06:59:43;;;;;;;2.30;1.50;;;;;;;5.76;72.08;101401.25;8248130;28;20061;-72
2022/03/18 07:03:44;;;;;;;5.27;1.57;;;;;;;5.83;72.40;101398.13;8247773;28;20054;-71
2022/03/18 07:07:48;;;;;;;2.50;1.70;;;;;;;5.91;71.60;101407.13;8243262;28;20054;-71
2022/03/18 07:11:49;;;;;;;5.00;1.40;;;;;;;5.98;70.83;101404.03;8250785;28;20061;-71
2022/03/18 07:15:51;;;;;;;3.73;1.20;;;;;;;6.05;70.40;101411.22;8224135;28;20068;-72
2022/03/18 07:19:53;;;;;;;5.63;1.35;;;;;;;6.18;69.89;101414.38;8246609;28;20050;-72
2022/03/18 07:23:54;;;;;;;2.43;1.07;;;;;;;6.27;69.01;101414.78;8249336;28;20062;-72
2022/03/18 07:27:57;;;;;;;6.23;1.50;;;;;;;6.35;68.88;101416.91;8247692;28;20144;-72
2022/03/18 07:31:58;;;;;;;4.57;1.33;;;;;;;6.50;68.47;101423.59;8235492;28;20148;-77
2022/03/18 07:36:00;;;;;;;2.35;1.20;;;;;;;6.58;67.28;101422.22;8242079;28;20072;-72
2022/03/18 07:40:03;;;;;;;4.67;1.20;;;;;;;6.69;66.56;101421.00;8251768;28;20054;-73
2022/03/18 07:44:05;;;;;;;5.53;1.50;;;;;;;6.79;65.83;101420.56;8239543;28;20066;-74
2022/03/18 07:48:08;;;;;;;3.83;1.20;;;;;;;6.94;65.37;101423.81;8260813;28;20061;-73
2022/03/18 07:52:09;;;;;;;3.30;1.10;;;;;;;7.14;65.06;101426.34;8252458;28;20050;-77
2022/03/18 07:56:11;;;;;;;2.23;1.00;;;;;;;7.31;63.87;101422.78;8248386;28;20060;-76
2022/03/18 08:00:15;;;;;;;4.77;1.37;;;;;;;7.48;63.25;101426.03;8242933;28;20174;-76
2022/03/18 08:04:16;;;;;;;5.30;1.17;;;;;;;7.60;62.37;101439.47;8241734;28;20117;-76
2022/03/18 08:08:17;;;;;;;3.23;1.10;;;;;;;7.76;62.44;101421.19;8250782;28;20053;-77
2022/03/18 08:12:19;;;;;;;5.23;1.33;;;;;;;7.88;61.67;101434.56;8249637;28;20053;-76
2022/03/18 08:16:22;;;;;;;5.60;1.50;;;;;;;8.00;61.26;101439.34;8248367;28;20064;-77
2022/03/18 08:20:24;;;;;;;2.33;1.20;;;;;;;8.09;60.56;101442.31;8249375;28;20155;-77
2022/03/18 08:24:26;;;;;;;6.38;1.33;;;;;;;8.19;60.23;101434.06;8258860;28;20085;-76
2022/03/18 08:28:27;;;;;;;6.07;1.40;;;;;;;8.34;60.34;101438.97;8259476;28;20085;-76
2022/03/18 08:32:29;;;;;;;6.20;1.60;;;;;;;8.46;60.31;101439.44;8243677;28;20128;-75
2022/03/18 08:36:30;;;;;;;6.50;1.50;;;;;;;8.64;59.97;101440.94;8252581;28;20057;-76
2022/03/18 08:40:34;;;;;;;5.93;1.80;;;;;;;8.77;59.58;101449.16;8256891;28;20522;-77
2022/03/18 08:44:36;;;;;;;4.88;2.13;;;;;;;8.90;58.76;101447.91;8257956;28;20078;-73
2022/03/18 08:48:38;;;;;;;7.97;2.53;;;;;;;8.98;58.28;101451.66;8289100;28;20161;-73
2022/03/18 08:52:39;;;;;;;6.75;1.60;;;;;;;9.25;58.20;101450.84;8285985;28;20104;-71
2022/03/18 08:56:41;;;;;;;7.03;1.47;;;;;;;9.38;57.19;101460.81;8284795;28;20128;-72
2022/03/18 09:00:42;;;;;;;7.40;1.80;;;;;;;9.58;56.92;101464.06;8282577;28;20607;-72
2022/03/18 09:04:44;;;;;;;3.47;1.10;;;;;;;9.75;56.11;101469.78;8290052;28;20062;-72
2022/03/18 09:08:46;;;;;;;3.97;2.00;;;;;;;9.95;55.88;101453.16;8283745;28;20128;-72
2022/03/18 09:12:49;;;;;;;6.68;2.03;;;;;;;10.12;56.49;101458.84;8283883;28;20305;-72
2022/03/18 09:16:51;;;;;;;8.30;2.60;;;;;;;10.27;55.96;101457.66;8270492;28;20157;-72
2022/03/18 09:20:52;;;;;;;5.00;1.80;;;;;;;10.32;55.16;101464.69;8251888;28;20568;-72
2022/03/18 09:24:53;;;;;;;4.13;1.85;;;;;;;10.31;55.24;101469.00;8249693;28;20149;-72
2022/03/18 09:28:55;;;;;;;8.65;2.30;;;;;;;10.26;56.25;101471.47;8258055;28;20084;-72
2022/03/18 09:32:57;;;;;;;5.47;2.47;;;;;;;10.36;55.26;101464.81;8266095;28;20061;-72
2022/03/18 09:36:58;;;;;;;3.73;2.33;;;;;;;10.60;55.70;101459.47;8297636;28;20433;-72
2022/03/18 09:41:00;;;;;;;5.30;2.13;;;;;;;10.83;55.34;101454.91;8293787;28;20064;-73
2022/03/18 09:45:09;;;;;;;6.13;1.73;;;;;;;11.04;55.23;101465.88;8292482;28;20698;-73
2022/03/18 09:49:14;;;;;;;11.48;2.33;;;;;;;11.49;55.31;101460.16;8262074;28;20520;-72
2022/03/18 09:53:16;;;;;;;4.78;2.33;;;;;;;11.82;54.15;101451.41;8260899;28;20059;-73
2022/03/18 09:57:17;;;;;;;3.80;2.30;;;;;;;12.02;52.26;101452.75;8260638;28;20058;-73
2022/03/18 10:01:19;;;;;;;6.80;2.45;;;;;;;12.10;51.62;101449.47;8248552;28;20061;-72
2022/03/18 10:05:21;;;;;;;9.77;2.40;;;;;;;12.12;51.71;101448.63;8288451;28;20315;-73
2022/03/18 10:09:28;;;;;;;5.70;2.97;;;;;;;12.14;51.80;101446.94;8281320;28;20053;-72
2022/03/18 10:13:49;;;;;;;5.47;3.33;;;;;;;12.18;51.52;101451.38;8277364;28;20092;-72
2022/03/18 10:17:52;;;;;;;4.63;2.63;;;;;;;12.24;51.90;101436.78;8293759;28;20144;-72
2022/03/18 10:21:59;;;;;;;4.45;2.40;;;;;;;12.33;51.06;101438.69;8285872;28;20168;-72
2022/03/18 10:26:01;;;;;;;4.57;2.42;;;;;;;12.49;52.16;101435.56;8295185;28;20140;-72
2022/03/18 10:30:07;;;;;;;4.47;2.30;;;;;;;12.51;51.89;101428.63;8282363;28;20053;-72
2022/03/18 10:38:35;;;;;;;5.00;2.97;;;;;;;12.70;51.82;101419.47;8286050;28;20149;-72
2022/03/18 10:42:37;;;;;;;8.57;3.40;;;;;;;12.67;51.75;101422.88;8294393;28;20054;-72
2022/03/18 10:46:41;;;;;;;5.85;2.83;;;;;;;12.60;51.38;101423.63;8268049;28;20056;-72
2022/03/18 10:50:45;;;;;;;5.63;2.92;;;;;;;12.76;51.41;101424.81;8294125;28;20437;-73
2022/03/18 10:54:46;;;;;;;3.85;2.53;;;;;;;12.91;50.89;101422.47;8293156;28;20758;-73
2022/03/18 10:58:48;;;;;;;6.30;2.92;;;;;;;13.03;50.78;101419.22;8280925;28;20137;-72
2022/03/18 11:03:00;;;;;;;5.53;3.30;;;;;;;13.15;51.33;101427.28;8290764;28;20517;-72
2022/03/18 11:11:27;;;;;;;5.60;3.00;;;;;;;13.45;49.48;101426.94;8281765;28;20137;-73
2022/03/18 11:15:32;;;;;;;5.38;3.13;;;;;;;13.44;49.38;101422.56;8254885;28;20050;-73
2022/03/18 11:19:34;;;;;;;8.30;2.97;;;;;;;13.50;50.19;101430.53;8283630;28;20300;-72
2022/03/18 11:23:39;;;;;;;5.07;3.25;;;;;;;13.68;50.48;101429.94;8279655;28;20050;-73
2022/03/18 11:27:44;;;;;;;6.00;3.17;;;;;;;13.89;49.07;101437.22;8275890;28;20060;-72
2022/03/18 11:32:12;;;;;;;5.82;3.17;;;;;;;13.95;48.38;101426.84;8276382;28;20057;-72
2022/03/18 11:36:14;;;;;;;3.78;2.80;;;;;;;14.06;48.58;101421.78;8280969;28;20072;-72
2022/03/18 11:40:27;;;;;;;3.38;2.35;;;;;;;14.05;48.00;101420.03;8283282;28;20116;-72
2022/03/18 11:44:42;;;;;;;4.72;2.40;;;;;;;14.02;47.84;101414.78;8278043;28;20043;-72
2022/03/18 11:48:51;;;;;;;4.60;2.20;;;;;;;14.10;47.29;101410.53;8281528;28;20334;-72
2022/03/18 11:52:57;;;;;;;4.57;3.03;;;;;;;14.21;47.42;101409.81;8283280;28;20088;-72
2022/03/18 11:56:59;;;;;;;5.13;2.72;;;;;;;14.41;45.52;101414.41;8281917;28;20050;-72
2022/03/18 12:01:00;;;;;;;3.90;2.87;;;;;;;14.44;45.96;101407.50;8282072;28;20447;-72
2022/03/18 12:05:04;;;;;;;10.68;4.63;;;;;;;14.52;46.08;101402.38;8282877;28;20070;-72
2022/03/18 12:09:05;;;;;;;9.30;4.03;;;;;;;14.62;45.83;101404.25;8280133;28;20077;-72
2022/03/18 12:13:07;;;;;;;6.70;4.03;;;;;;;14.74;46.12;101404.38;8282956;28;20107;-72
2022/03/18 12:17:08;;;;;;;3.90;2.93;;;;;;;14.76;46.15;101407.91;8281209;28;20685;-72
2022/03/18 12:21:32;;;;;;;4.95;4.35;;;;;;;14.89;44.87;101402.78;8291925;28;20514;-72
2022/03/18 12:25:39;;;;;;;6.00;3.47;;;;;;;14.84;44.87;101400.13;8279293;28;20056;-72
2022/03/18 12:29:40;;;;;;;7.07;4.18;;;;;;;14.89;44.57;101398.41;8252729;28;20045;-72
2022/03/18 12:33:42;;;;;;;4.20;3.43;;;;;;;14.90;45.05;101394.97;8272483;28;20144;-72
2022/03/18 12:37:46;;;;;;;5.13;3.27;;;;;;;14.89;43.85;101397.53;8276386;28;20046;-72
2022/03/18 12:41:47;;;;;;;8.82;3.15;;;;;;;14.88;44.23;101391.44;8280178;28;20671;-72
2022/03/18 12:45:52;;;;;;;5.20;2.85;;;;;;;15.10;43.37;101385.56;8273189;28;20725;-72
2022/03/18 12:49:54;;;;;;;2.95;2.17;;;;;;;15.27;42.98;101384.84;8275652;28;20070;-72
2022/03/18 12:53:57;;;;;;;5.95;2.30;;;;;;;15.34;42.91;101382.28;8275579;28;20512;-72
2022/03/18 12:57:59;;;;;;;4.53;2.50;;;;;;;15.38;42.68;101378.81;8271604;28;20084;-71
2022/03/18 13:02:03;;;;;;;5.45;2.17;;;;;;;15.48;40.41;101384.13;8268699;28;20061;-72
2022/03/18 13:06:11;;;;;;;5.75;1.75;;;;;;;15.28;41.16;101397.06;8285046;28;20049;-72
2022/03/18 13:10:14;;;;;;;3.28;1.75;;;;;;;15.15;41.10;101372.53;8285102;28;20164;-72
2022/03/18 13:14:35;;;;;;;5.90;2.10;;;;;;;15.03;40.28;101390.72;8281312;28;20440;-72
2022/03/18 13:18:36;;;;;;;4.53;1.88;;;;;;;14.91;40.87;101385.38;8263646;28;20176;-72
2022/03/18 13:22:39;;;;;;;4.07;2.40;;;;;;;14.88;41.16;101388.81;8283064;28;20050;-72
2022/03/18 13:26:45;;;;;;;3.25;1.50;;;;;;;14.79;39.87;101381.78;8288217;28;20152;-72
2022/03/18 13:35:12;;;;;;;3.13;1.40;;;;;;;14.47;40.15;101385.75;8280619;28;20136;-70
2022/03/18 13:39:23;;;;;;;5.38;1.13;;;;;;;14.32;39.91;101381.19;8280456;28;20458;-73
2022/03/18 13:43:36;;;;;;;3.88;1.42;;;;;;;14.27;40.39;101377.66;8286339;28;20128;-73
2022/03/18 13:47:48;;;;;;;2.05;0.90;;;;;;;14.19;40.06;101371.47;8279379;28;20152;-72
2022/03/18 13:52:06;;;;;;;2.10;1.00;;;;;;;14.23;40.58;101380.22;8280472;28;20465;-72
2022/03/18 13:56:16;;;;;;;2.65;1.17;;;;;;;14.17;40.92;101378.38;8291938;28;20049;-72
2022/03/18 14:00:26;;;;;;;3.10;1.00;;;;;;;14.09;40.32;101377.41;8288960;28;20197;-72
2022/03/18 14:04:42;;;;;;;4.20;1.00;;;;;;;14.04;41.14;101373.88;8254090;28;20050;-72
2022/03/18 14:08:44;;;;;;;2.97;1.17;;;;;;;13.98;40.82;101369.41;8267317;28;20132;-72
2022/03/18 14:13:01;;;;;;;2.08;1.20;;;;;;;13.93;39.90;101371.09;8270460;28;20129;-72
2022/03/18 14:17:22;;;;;;;3.55;0.88;;;;;;;13.87;40.61;101366.69;8271080;28;20541;-72
2022/03/18 14:21:24;;;;;;;5.77;1.20;;;;;;;13.83;40.83;101362.28;8295073;28;20160;-72
2022/03/18 14:25:29;;;;;;;12.90;1.60;;;;;;;13.85;40.52;101357.09;8295731;28;20386;-72
2022/03/18 14:29:31;;;;;;;5.38;1.35;;;;;;;13.88;40.60;101359.72;8287176;28;20050;-72
2022/03/18 14:33:37;;;;;;;2.75;0.90;;;;;;;13.87;39.74;101358.84;8291738;28;20816;-72
2022/03/18 14:37:39;;;;;;;4.95;0.80;;;;;;;13.77;39.68;101353.47;8294736;28;20092;-72
2022/03/18 14:41:40;;;;;;;;;;;;;;;13.55;39.33;101362.72;8299063;28;20058;-72
2022/03/18 14:45:42;;;;;;;1.70;0.73;;;;;;;13.34;39.60;101365.00;8290826;28;19926;-71
2022/03/18 14:49:43;;;;;;;1.60;0.83;;;;;;;13.16;39.92;101366.44;8294672;28;20060;-71
2022/03/18 14:53:45;;;;;;;2.42;0.80;;;;;;;13.08;39.59;101361.91;8295885;28;20046;-72
2022/03/18 14:57:46;;;;;;;1.80;0.77;;;;;;;13.04;38.45;101361.00;8296813;28;20675;-72
2022/03/18 15:01:48;;;;;;;2.13;1.00;;;;;;;12.89;38.80;101363.31;8289358;28;20145;-72
2022/03/18 15:05:51;;;;;;;2.47;0.88;;;;;;;12.83;39.09;101365.84;8296202;28;20069;-72
2022/03/18 15:09:52;;;;;;;2.13;0.80;;;;;;;12.92;39.21;101366.84;8297978;28;20091;-72
2022/03/18 15:13:54;;;;;;;2.38;1.00;;;;;;;12.97;38.92;101356.53;8294675;28;20065;-72
2022/03/18 15:17:56;;;;;;;0.83;0.60;;;;;;;13.05;38.42;101357.53;8293048;28;20090;-72
2022/03/18 15:21:57;;;;;;;6.93;2.10;;;;;;;13.14;38.31;101349.00;8286492;28;20064;-72
2022/03/18 15:25:59;;;;;;;3.23;1.00;;;;;;;13.34;37.51;101351.97;8293441;28;20081;-71
2022/03/18 15:30:02;;;;;;;4.07;1.52;;;;;;;13.43;37.06;101342.53;8293201;28;20058;-73
2022/03/18 15:34:04;;;;;;;3.97;2.08;;;;;;;13.65;37.64;101340.25;8292846;28;20133;-72
2022/03/18 15:38:06;;;;;;;7.23;1.70;;;;;;;14.05;35.63;101339.94;8291849;28;20053;-72
2022/03/18 15:42:08;;;;;;;2.92;1.90;;;;;;;14.37;36.15;101329.00;8279466;28;20472;-75
2022/03/18 15:46:12;;;;;;;5.25;1.52;;;;;;;14.58;33.99;101341.44;8289796;28;20167;-72
2022/03/18 15:54:15;;;;;;;8.23;3.50;;;;;;;15.20;33.17;101331.56;8296957;28;20570;-72
2022/03/18 15:58:16;;;;;;;3.15;1.40;;;;;;;17.03;29.93;101337.63;8297148;28;20402;-72
2022/03/18 16:02:18;;;;;;;4.43;1.17;;;;;;;19.13;25.99;101333.34;8284963;28;20099;-71
2022/03/18 16:06:19;;;;;;;8.13;1.47;;;;;;;20.98;25.10;101323.22;8279069;28;20053;-72
2022/03/18 16:10:21;;;;;;;5.10;2.50;;;;;;;22.65;21.95;101344.72;8295897;28;20053;-72
2022/03/18 16:14:22;;;;;;;7.97;1.25;;;;;;;22.32;20.76;101320.72;8290225;28;20128;-71
2022/03/18 16:18:32;;;;;;;11.25;1.33;;;;;;;21.46;21.92;101316.25;8273252;28;20092;-71
2022/03/18 16:22:34;;;;;;;5.30;1.10;;;;;;;23.03;19.61;101327.94;8283876;28;20165;-72
2022/03/18 16:26:38;;;;;;;12.05;3.33;;;;;;;24.65;18.77;101332.25;8278077;28;20047;-69
2022/03/18 16:30:40;;;;;;;3.20;1.30;;;;;;;26.11;17.20;101316.56;8281577;28;20057;-71
2022/03/18 16:34:42;;;;;;;2.55;1.10;;;;;;;26.75;16.18;101323.84;8282684;28;20060;-72
2022/03/18 16:38:44;;;;;;;4.90;2.20;;;;;;;26.17;15.77;101311.00;8280627;28;20049;-71
2022/03/18 16:42:46;;;;;;;4.72;1.63;;;;;;;24.90;16.83;101317.25;8278432;28;20153;-70
2022/03/18 16:51:09;;;;;;;2.88;1.65;;;;;;;18.11;24.05;101320.78;8285454;28;19983;-71
2022/03/18 16:55:10;;;;;;;5.28;1.17;;;;;;;16.42;26.43;101328.75;8296080;28;20049;-71
2022/03/18 16:59:12;;;;;;;5.15;1.38;;;;;;;15.20;28.12;101328.94;8297868;28;20141;-71
2022/03/18 17:03:13;;;;;;;2.33;0.90;;;;;;;14.43;29.67;101335.19;8296337;28;20156;-70
2022/03/18 17:07:15;;;;;;;3.00;1.30;;;;;;;13.71;30.21;101335.13;8302002;28;20060;-71
2022/03/18 17:11:17;;;;;;;9.73;4.43;;;;;;;13.28;30.62;101345.81;8296995;28;20334;-71
2022/03/18 17:15:18;;;;;;;6.25;1.85;;;;;;;12.93;31.90;101339.09;8282836;28;20547;-72
2022/03/18 17:19:20;;;;;;;6.57;3.90;;;;;;;12.65;32.41;101341.19;8271763;28;20153;-71
2022/03/18 17:23:22;;;;;;;7.45;4.00;;;;;;;12.43;33.21;101340.75;8287748;28;20056;-71
2022/03/18 17:27:32;;;;;;;7.57;3.45;;;;;;;12.19;32.97;101339.41;8291880;28;20375;-71
2022/03/18 17:31:34;;;;;;;6.57;3.47;;;;;;;12.03;33.27;101356.47;8281982;28;20058;-71
2022/03/18 17:35:35;;;;;;;4.00;2.07;;;;;;;11.91;34.52;101356.19;8280662;28;20064;-71
2022/03/18 17:39:37;;;;;;;2.58;1.13;;;;;;;11.71;34.65;101368.75;8297352;28;20085;-71
2022/03/18 17:43:39;;;;;;;2.40;0.93;;;;;;;11.61;34.72;101371.06;8291786;28;20064;-71
2022/03/18 17:47:40;;;;;;;2.35;0.73;;;;;;;11.49;34.41;101369.09;8281906;28;20134;-71
2022/03/18 17:51:48;;;;;;;1.85;0.90;;;;;;;11.37;34.85;101376.59;8281916;28;20584;-71
2022/03/18 17:55:50;;;;;;;3.80;0.98;;;;;;;11.26;34.58;101381.50;8282412;28;20056;-71
2022/03/18 17:59:54;;;;;;;2.00;0.97;;;;;;;11.17;35.36;101383.91;8266199;28;20593;-71
2022/03/18 18:03:55;;;;;;;1.52;0.77;;;;;;;11.07;35.80;101390.56;8254118;28;20072;-70
2022/03/18 18:07:57;;;;;;;1.83;1.10;;;;;;;10.99;36.33;101397.31;8252706;28;20149;-71
2022/03/18 18:11:58;;;;;;;3.53;0.85;;;;;;;10.91;35.92;101396.22;8252061;28;20141;-71
2022/03/18 18:16:00;;;;;;;1.73;1.13;;;;;;;10.85;36.07;101399.53;8253827;28;20073;-71
2022/03/18 18:24:22;;;;;;;3.70;1.50;;;;;;;10.66;36.47;101401.59;8288240;28;20046;-70
2022/03/18 18:28:25;;;;;;;2.17;0.73;;;;;;;10.63;36.64;101410.19;8294901;28;20486;-70
2022/03/18 18:32:29;;;;;;;4.43;1.23;;;;;;;10.56;36.46;101398.72;8281308;28;21324;-70
2022/03/18 18:36:30;;;;;;;4.85;1.52;;;;;;;10.53;37.16;101405.56;8293434;28;20073;-70
2022/03/18 18:40:32;;;;;;;2.63;1.13;;;;;;;10.44;37.26;101408.81;8288433;28;20046;-70
2022/03/18 18:44:35;;;;;;;1.35;0.80;;;;;;;10.37;36.97;101403.38;8285732;28;20473;-70
2022/03/18 18:48:41;;;;;;;2.40;0.85;;;;;;;10.34;36.73;101406.75;8286211;28;20057;-70
2022/03/18 18:52:44;;;;;;;2.47;0.80;;;;;;;10.33;37.39;101409.31;8280685;28;20663;-70
2022/03/18 18:56:45;;;;;;;2.00;0.90;;;;;;;10.27;37.80;101410.91;8282703;28;20358;-70
2022/03/18 19:00:48;;;;;;;5.50;1.00;;;;;;;10.24;37.92;101408.22;8279047;28;20053;-70
2022/03/18 19:04:51;;;;;;;1.52;0.80;;;;;;;10.18;37.82;101409.72;8279666;28;20295;-70
2022/03/18 19:08:54;;;;;;;;;;;;;;;10.14;38.05;101406.16;8278831;28;20141;-70
2022/03/18 19:12:55;;;;;;;1.42;0.65;;;;;;;10.11;37.94;101411.25;8282027;28;19925;-69
2022/03/18 19:16:57;;;;;;;3.13;1.30;;;;;;;10.08;38.42;101415.47;8272667;28;20112;-70
2022/03/18 19:20:59;;;;;;;;;;;;;;;10.03;38.70;101428.28;8281463;28;20053;-69
2022/03/18 19:25:02;;;;;;;5.55;1.20;;;;;;;10.00;38.42;101413.50;8280315;28;19964;-70
2022/03/18 19:29:04;;;;;;;2.92;1.65;;;;;;;9.94;39.39;101422.84;8276761;28;20069;-70
2022/03/18 19:33:05;;;;;;;3.97;1.55;;;;;;;9.85;38.81;101409.56;8266785;28;20149;-70
2022/03/18 19:37:07;;;;;;;6.05;1.98;;;;;;;9.80;39.54;101424.13;8274744;28;20088;-69